sensor_id;sensor_type;location;lat;lon;timestamp;pressure;altitude;pressure_sealevel;temperature;humidity
61109;BME280;46995;55.740;37.402;2024-01-30T00:00:07;100640.19;;;-0.53;89.46
61109;BME280;46995;55.740;37.402;2024-01-30T00:02:33;100618.13;;;-0.70;89.74
61109;BME280;46995;55.740;37.402;2024-01-30T00:04:59;100639.28;;;-0.52;89.67
61109;BME280;46995;55.740;37.402;2024-01-30T00:07:24;100641.84;;;-0.50;90.08
61109;BME280;46995;55.740;37.402;2024-01-30T00:09:50;100652.16;;;-0.47;89.62
61109;BME280;46995;55.740;37.402;2024-01-30T00:12:16;100641.72;;;-0.44;89.79
61109;BME280;46995;55.740;37.402;2024-01-30T00:14:42;100647.75;;;-0.44;90.42
61109;BME280;46995;55.740;37.402;2024-01-30T00:17:09;100643.44;;;-0.45;90.18
61109;BME280;46995;55.740;37.402;2024-01-30T00:19:34;100643.44;;;-0.43;90.51
61109;BME280;46995;55.740;37.402;2024-01-30T00:22:00;100639.88;;;-0.40;90.40
61109;BME280;46995;55.740;37.402;2024-01-30T00:24:26;100639.88;;;-0.39;89.62
61109;BME280;46995;55.740;37.402;2024-01-30T00:26:51;100640.72;;;-0.38;89.98
61109;BME280;46995;55.740;37.402;2024-01-30T00:29:17;100634.81;;;-0.45;89.68
61109;BME280;46995;55.740;37.402;2024-01-30T00:31:45;100634.03;;;-0.49;90.07
61109;BME280;46995;55.740;37.402;2024-01-30T00:34:11;100624.53;;;-0.48;89.69
61109;BME280;46995;55.740;37.402;2024-01-30T00:36:37;100632.22;;;-0.45;89.66
61109;BME280;46995;55.740;37.402;2024-01-30T00:39:02;100631.31;;;-0.43;89.55
61109;BME280;46995;55.740;37.402;2024-01-30T00:41:31;100631.25;;;-0.41;89.99
61109;BME280;46995;55.740;37.402;2024-01-30T00:43:57;100617.41;;;-0.40;89.38
61109;BME280;46995;55.740;37.402;2024-01-30T00:46:23;100622.59;;;-0.40;89.71
61109;BME280;46995;55.740;37.402;2024-01-30T00:48:48;100627.75;;;-0.38;89.97
61109;BME280;46995;55.740;37.402;2024-01-30T00:51:14;100626.88;;;-0.39;90.08
61109;BME280;46995;55.740;37.402;2024-01-30T00:53:40;100626.00;;;-0.38;90.13
61109;BME280;46995;55.740;37.402;2024-01-30T00:56:07;100617.34;;;-0.37;89.96
61109;BME280;46995;55.740;37.402;2024-01-30T00:58:34;100631.09;;;-0.35;89.69
61109;BME280;46995;55.740;37.402;2024-01-30T01:00:59;100625.91;;;-0.35;89.56
61109;BME280;46995;55.740;37.402;2024-01-30T01:03:25;100629.34;;;-0.33;89.43
61109;BME280;46995;55.740;37.402;2024-01-30T01:06:16;100625.91;;;-0.35;89.72
61109;BME280;46995;55.740;37.402;2024-01-30T01:08:42;100625.03;;;-0.34;90.04
61109;BME280;46995;55.740;37.402;2024-01-30T01:11:07;100612.91;;;-0.33;90.53
61109;BME280;46995;55.740;37.402;2024-01-30T01:13:33;100622.41;;;-0.32;89.67
61109;BME280;46995;55.740;37.402;2024-01-30T01:15:58;100613.69;;;-0.30;89.62
61109;BME280;46995;55.740;37.402;2024-01-30T01:18:24;100618.06;;;-0.32;89.41
61109;BME280;46995;55.740;37.402;2024-01-30T01:20:51;100617.16;;;-0.31;90.27
61109;BME280;46995;55.740;37.402;2024-01-30T01:23:16;100610.22;;;-0.29;90.03
61109;BME280;46995;55.740;37.402;2024-01-30T01:25:42;100607.59;;;-0.27;90.21
61109;BME280;46995;55.740;37.402;2024-01-30T01:28:09;100610.22;;;-0.29;89.57
61109;BME280;46995;55.740;37.402;2024-01-30T01:30:34;100600.69;;;-0.28;90.10
61109;BME280;46995;55.740;37.402;2024-01-30T01:33:00;100601.50;;;-0.26;90.18
61109;BME280;46995;55.740;37.402;2024-01-30T01:35:27;100603.25;;;-0.27;90.30
61109;BME280;46995;55.740;37.402;2024-01-30T01:37:53;100603.16;;;-0.24;89.88
61109;BME280;46995;55.740;37.402;2024-01-30T01:40:23;100603.06;;;-0.21;89.99
61109;BME280;46995;55.740;37.402;2024-01-30T01:42:50;100591.16;;;-0.28;89.46
61109;BME280;46995;55.740;37.402;2024-01-30T01:45:16;100599.00;;;-0.31;89.71
61109;BME280;46995;55.740;37.402;2024-01-30T01:47:41;100591.22;;;-0.31;89.72
61109;BME280;46995;55.740;37.402;2024-01-30T01:50:08;100591.22;;;-0.31;89.60
61109;BME280;46995;55.740;37.402;2024-01-30T01:52:33;100582.47;;;-0.27;89.83
61109;BME280;46995;55.740;37.402;2024-01-30T01:54:59;100589.34;;;-0.26;89.61
61109;BME280;46995;55.740;37.402;2024-01-30T01:57:25;100595.41;;;-0.25;89.64
61109;BME280;46995;55.740;37.402;2024-01-30T01:59:51;100593.63;;;-0.23;89.94
61109;BME280;46995;55.740;37.402;2024-01-30T02:02:17;100581.41;;;-0.20;89.66
61109;BME280;46995;55.740;37.402;2024-01-30T02:04:44;100581.38;;;-0.18;89.40
61109;BME280;46995;55.740;37.402;2024-01-30T02:07:09;100590.75;;;-0.13;89.02
61109;BME280;46995;55.740;37.402;2024-01-30T02:09:36;100584.69;;;-0.12;89.28
61109;BME280;46995;55.740;37.402;2024-01-30T02:12:01;100583.81;;;-0.11;88.79
61109;BME280;46995;55.740;37.402;2024-01-30T02:14:27;100589.88;;;-0.12;89.38
61109;BME280;46995;55.740;37.402;2024-01-30T02:16:53;100592.53;;;-0.15;89.32
61109;BME280;46995;55.740;37.402;2024-01-30T02:19:18;100592.53;;;-0.15;89.42
61109;BME280;46995;55.740;37.402;2024-01-30T02:21:45;100584.81;;;-0.16;89.25
61109;BME280;46995;55.740;37.402;2024-01-30T02:24:11;100590.91;;;-0.19;89.68
61109;BME280;46995;55.740;37.402;2024-01-30T02:26:37;100587.44;;;-0.18;89.88
61109;BME280;46995;55.740;37.402;2024-01-30T02:29:02;100590.81;;;-0.16;90.24
61109;BME280;46995;55.740;37.402;2024-01-30T02:31:28;100574.38;;;-0.15;90.38
61109;BME280;46995;55.740;37.402;2024-01-30T02:33:53;100570.03;;;-0.14;90.46
61109;BME280;46995;55.740;37.402;2024-01-30T02:36:19;100578.69;;;-0.15;89.67
61109;BME280;46995;55.740;37.402;2024-01-30T02:38:44;100580.44;;;-0.16;89.63
61109;BME280;46995;55.740;37.402;2024-01-30T02:41:11;100581.22;;;-0.12;89.65
61109;BME280;46995;55.740;37.402;2024-01-30T02:43:37;100583.88;;;-0.14;90.00
61109;BME280;46995;55.740;37.402;2024-01-30T02:46:03;100584.69;;;-0.12;89.29
61109;BME280;46995;55.740;37.402;2024-01-30T02:48:28;100583.88;;;-0.14;89.64
61109;BME280;46995;55.740;37.402;2024-01-30T02:50:54;100580.38;;;-0.13;89.79
61109;BME280;46995;55.740;37.402;2024-01-30T02:53:19;100571.72;;;-0.12;90.33
61109;BME280;46995;55.740;37.402;2024-01-30T02:55:45;100572.44;;;-0.07;90.32
61109;BME280;46995;55.740;37.402;2024-01-30T02:58:10;100576.75;;;-0.06;89.88
61109;BME280;46995;55.740;37.402;2024-01-30T03:00:36;100580.22;;;-0.07;90.09
61109;BME280;46995;55.740;37.402;2024-01-30T03:03:02;100584.53;;;-0.06;89.75
61109;BME280;46995;55.740;37.402;2024-01-30T03:05:27;100589.63;;;-0.03;89.95
61109;BME280;46995;55.740;37.402;2024-01-30T03:07:53;100591.34;;;-0.02;89.55
61109;BME280;46995;55.740;37.402;2024-01-30T03:10:18;100584.31;;;0.02;89.25
61109;BME280;46995;55.740;37.402;2024-01-30T03:12:44;100601.47;;;0.08;89.51
61109;BME280;46995;55.740;37.402;2024-01-30T03:15:10;100593.66;;;0.09;89.64
61109;BME280;46995;55.740;37.402;2024-01-30T03:17:35;100589.31;;;0.10;89.89
61109;BME280;46995;55.740;37.402;2024-01-30T03:20:02;100598.78;;;0.11;89.28
61109;BME280;46995;55.740;37.402;2024-01-30T03:22:29;100602.31;;;0.10;89.13
61109;BME280;46995;55.740;37.402;2024-01-30T03:24:54;100594.53;;;0.08;89.24
61109;BME280;46995;55.740;37.402;2024-01-30T03:27:20;100604.16;;;0.05;89.58
61109;BME280;46995;55.740;37.402;2024-01-30T03:29:45;100598.88;;;0.08;89.50
61109;BME280;46995;55.740;37.402;2024-01-30T03:32:11;100608.34;;;0.10;89.20
61109;BME280;46995;55.740;37.402;2024-01-30T03:34:37;100597.97;;;0.10;89.15
61109;BME280;46995;55.740;37.402;2024-01-30T03:37:02;100589.25;;;0.11;89.53
61109;BME280;46995;55.740;37.402;2024-01-30T03:39:28;100579.66;;;0.15;89.55
61109;BME280;46995;55.740;37.402;2024-01-30T03:41:54;100582.31;;;0.12;89.65
61109;BME280;46995;55.740;37.402;2024-01-30T03:44:19;100588.34;;;0.14;89.43
61109;BME280;46995;55.740;37.402;2024-01-30T03:46:45;100592.66;;;0.15;89.51
61109;BME280;46995;55.740;37.402;2024-01-30T03:49:12;100603.91;;;0.14;89.98
61109;BME280;46995;55.740;37.402;2024-01-30T03:51:38;100604.75;;;0.16;89.32
61109;BME280;46995;55.740;37.402;2024-01-30T03:54:04;100612.44;;;0.19;89.57
61109;BME280;46995;55.740;37.402;2024-01-30T03:56:30;100608.97;;;0.20;89.09
61109;BME280;46995;55.740;37.402;2024-01-30T03:58:55;100605.47;;;0.21;89.07
61109;BME280;46995;55.740;37.402;2024-01-30T04:01:22;100608.88;;;0.23;89.23
61109;BME280;46995;55.740;37.402;2024-01-30T04:03:47;100616.59;;;0.26;89.35
61109;BME280;46995;55.740;37.402;2024-01-30T04:06:13;100612.22;;;0.26;89.31
61109;BME280;46995;55.740;37.402;2024-01-30T04:08:39;100613.03;;;0.28;89.01
61109;BME280;46995;55.740;37.402;2024-01-30T04:11:05;100610.41;;;0.30;88.93
61109;BME280;46995;55.740;37.402;2024-01-30T04:13:33;100589.88;;;0.21;89.35
61109;BME280;46995;55.740;37.402;2024-01-30T04:15:59;100611.13;;;0.35;89.23
61109;BME280;46995;55.740;37.402;2024-01-30T04:18:27;100606.84;;;0.34;89.15
61109;BME280;46995;55.740;37.402;2024-01-30T04:20:53;100615.50;;;0.33;89.63
61109;BME280;46995;55.740;37.402;2024-01-30T04:23:18;100613.81;;;0.32;89.60
61109;BME280;46995;55.740;37.402;2024-01-30T04:25:44;100606.88;;;0.32;89.83
61109;BME280;46995;55.740;37.402;2024-01-30T04:28:10;100608.53;;;0.35;89.38
61109;BME280;46995;55.740;37.402;2024-01-30T04:30:40;100614.47;;;0.40;89.63
61109;BME280;46995;55.740;37.402;2024-01-30T04:33:06;100609.34;;;0.37;89.06
61109;BME280;46995;55.740;37.402;2024-01-30T04:35:32;100608.44;;;0.38;89.30
61109;BME280;46995;55.740;37.402;2024-01-30T04:37:58;100604.06;;;0.40;89.90
61109;BME280;46995;55.740;37.402;2024-01-30T04:40:25;100603.09;;;0.44;89.48
61109;BME280;46995;55.740;37.402;2024-01-30T04:42:54;100596.97;;;0.47;89.57
61109;BME280;46995;55.740;37.402;2024-01-30T04:45:20;100602.91;;;0.50;89.62
61109;BME280;46995;55.740;37.402;2024-01-30T04:47:46;100620.28;;;0.48;89.51
61109;BME280;46995;55.740;37.402;2024-01-30T04:50:13;100608.28;;;0.44;89.48
61109;BME280;46995;55.740;37.402;2024-01-30T04:52:38;100603.13;;;0.42;89.21
61109;BME280;46995;55.740;37.402;2024-01-30T04:55:04;100603.19;;;0.41;89.42
61109;BME280;46995;55.740;37.402;2024-01-30T04:57:30;100600.50;;;0.44;89.65
61109;BME280;46995;55.740;37.402;2024-01-30T04:59:57;100608.22;;;0.47;89.52
61109;BME280;46995;55.740;37.402;2024-01-30T05:02:23;100607.25;;;0.50;89.71
61109;BME280;46995;55.740;37.402;2024-01-30T05:04:49;100600.28;;;0.52;89.38
61109;BME280;46995;55.740;37.402;2024-01-30T05:07:15;100608.13;;;0.50;89.24
61109;BME280;46995;55.740;37.402;2024-01-30T05:09:40;100601.22;;;0.49;89.66
61109;BME280;46995;55.740;37.402;2024-01-30T05:12:06;100598.63;;;0.49;89.50
61109;BME280;46995;55.740;37.402;2024-01-30T05:14:32;100606.50;;;0.46;89.83
61109;BME280;46995;55.740;37.402;2024-01-30T05:16:57;100604.69;;;0.48;90.43
61109;BME280;46995;55.740;37.402;2024-01-30T05:19:23;100598.59;;;0.51;90.57
61109;BME280;46995;55.740;37.402;2024-01-30T05:21:49;100607.94;;;0.56;90.23
61109;BME280;46995;55.740;37.402;2024-01-30T05:24:15;100612.03;;;0.65;89.95
61109;BME280;46995;55.740;37.402;2024-01-30T05:26:40;100609.44;;;0.65;89.58
61109;BME280;46995;55.740;37.402;2024-01-30T05:29:06;100617.22;;;0.65;89.25
61109;BME280;46995;55.740;37.402;2024-01-30T05:31:34;100611.16;;;0.64;89.64
61109;BME280;46995;55.740;37.402;2024-01-30T05:34:00;100602.38;;;0.68;89.22
61109;BME280;46995;55.740;37.402;2024-01-30T05:36:26;100613.44;;;0.76;89.18
61109;BME280;46995;55.740;37.402;2024-01-30T05:38:52;100612.38;;;0.83;89.51
61109;BME280;46995;55.740;37.402;2024-01-30T05:41:19;100614.66;;;0.94;88.77
61109;BME280;46995;55.740;37.402;2024-01-30T05:43:47;100618.91;;;0.97;89.29
61109;BME280;46995;55.740;37.402;2024-01-30T05:46:14;100617.13;;;0.99;89.87
61109;BME280;46995;55.740;37.402;2024-01-30T05:48:40;100618.78;;;1.00;89.35
61109;BME280;46995;55.740;37.402;2024-01-30T05:51:06;100614.44;;;1.00;89.20
61109;BME280;46995;55.740;37.402;2024-01-30T05:53:35;100626.50;;;1.04;89.08
61109;BME280;46995;55.740;37.402;2024-01-30T05:56:01;100627.28;;;1.06;89.22
61109;BME280;46995;55.740;37.402;2024-01-30T05:58:27;100637.81;;;1.02;89.02
61109;BME280;46995;55.740;37.402;2024-01-30T06:00:53;100634.50;;;0.97;89.44
61109;BME280;46995;55.740;37.402;2024-01-30T06:03:20;100642.41;;;0.94;89.54
61109;BME280;46995;55.740;37.402;2024-01-30T06:05:46;100636.28;;;0.95;89.52
61109;BME280;46995;55.740;37.402;2024-01-30T06:08:11;100633.69;;;0.95;89.48
61109;BME280;46995;55.740;37.402;2024-01-30T06:10:37;100639.69;;;0.97;88.92
61109;BME280;46995;55.740;37.402;2024-01-30T06:13:03;100637.09;;;0.97;89.21
61109;BME280;46995;55.740;37.402;2024-01-30T06:15:29;100646.63;;;0.98;89.51
61109;BME280;46995;55.740;37.402;2024-01-30T06:17:58;100645.72;;;0.99;89.54
61109;BME280;46995;55.740;37.402;2024-01-30T06:20:23;100641.31;;;1.01;89.43
61109;BME280;46995;55.740;37.402;2024-01-30T06:22:49;100650.09;;;0.97;89.63
61109;BME280;46995;55.740;37.402;2024-01-30T06:25:15;100650.97;;;0.97;89.91
61109;BME280;46995;55.740;37.402;2024-01-30T06:27:42;100651.81;;;0.98;90.65
61109;BME280;46995;55.740;37.402;2024-01-30T06:30:07;100655.28;;;0.98;90.13
61109;BME280;46995;55.740;37.402;2024-01-30T06:32:34;100656.91;;;1.01;89.68
61109;BME280;46995;55.740;37.402;2024-01-30T06:35:00;100649.94;;;1.03;90.27
61109;BME280;46995;55.740;37.402;2024-01-30T06:37:26;100658.47;;;1.08;90.11
61109;BME280;46995;55.740;37.402;2024-01-30T06:39:51;100649.75;;;1.09;88.87
61109;BME280;46995;55.740;37.402;2024-01-30T06:42:17;100662.69;;;1.10;88.82
61109;BME280;46995;55.740;37.402;2024-01-30T06:44:43;100658.34;;;1.11;89.06
61109;BME280;46995;55.740;37.402;2024-01-30T06:47:09;100658.16;;;1.17;89.16
61109;BME280;46995;55.740;37.402;2024-01-30T06:49:35;100661.59;;;1.19;89.11
61109;BME280;46995;55.740;37.402;2024-01-30T06:52:06;100659.84;;;1.19;89.51
61109;BME280;46995;55.740;37.402;2024-01-30T06:54:33;100668.59;;;1.17;89.87
61109;BME280;46995;55.740;37.402;2024-01-30T06:56:59;100671.22;;;1.15;89.32
61109;BME280;46995;55.740;37.402;2024-01-30T06:59:24;100666.78;;;1.19;89.27
61109;BME280;46995;55.740;37.402;2024-01-30T07:01:50;100658.09;;;1.20;89.81
61109;BME280;46995;55.740;37.402;2024-01-30T07:04:16;100668.41;;;1.23;89.17
61109;BME280;46995;55.740;37.402;2024-01-30T07:06:41;100662.16;;;1.28;89.43
61109;BME280;46995;55.740;37.402;2024-01-30T07:09:07;100674.19;;;1.33;88.94
61109;BME280;46995;55.740;37.402;2024-01-30T07:11:35;100687.16;;;1.34;88.79
61109;BME280;46995;55.740;37.402;2024-01-30T07:14:00;100682.81;;;1.35;88.64
61109;BME280;46995;55.740;37.402;2024-01-30T07:16:29;100677.66;;;1.32;89.52
61109;BME280;46995;55.740;37.402;2024-01-30T07:18:54;100684.63;;;1.31;89.66
61109;BME280;46995;55.740;37.402;2024-01-30T07:21:21;100677.78;;;1.28;89.38
61109;BME280;46995;55.740;37.402;2024-01-30T07:23:50;100686.28;;;1.34;89.05
61109;BME280;46995;55.740;37.402;2024-01-30T07:26:16;100683.34;;;1.46;88.98
61109;BME280;46995;55.740;37.402;2024-01-30T07:28:41;100678.59;;;1.58;88.87
61109;BME280;46995;55.740;37.402;2024-01-30T07:31:08;100682.72;;;1.65;88.60
61109;BME280;46995;55.740;37.402;2024-01-30T07:33:33;100685.31;;;1.65;88.58
61109;BME280;46995;55.740;37.402;2024-01-30T07:35:59;100687.06;;;1.65;88.67
61109;BME280;46995;55.740;37.402;2024-01-30T07:38:25;100690.38;;;1.70;88.54
61109;BME280;46995;55.740;37.402;2024-01-30T07:40:51;100691.22;;;1.70;89.21
61109;BME280;46995;55.740;37.402;2024-01-30T07:43:18;100698.91;;;1.75;88.54
61109;BME280;46995;55.740;37.402;2024-01-30T07:45:45;100697.25;;;1.73;88.32
61109;BME280;46995;55.740;37.402;2024-01-30T07:48:10;100700.78;;;1.70;88.45
61109;BME280;46995;55.740;37.402;2024-01-30T07:50:37;100701.72;;;1.67;88.42
61109;BME280;46995;55.740;37.402;2024-01-30T07:53:02;100713.13;;;1.63;88.81
61109;BME280;46995;55.740;37.402;2024-01-30T07:56:02;100706.94;;;1.67;88.67
61109;BME280;46995;55.740;37.402;2024-01-30T07:58:47;100712.13;;;1.67;89.37
61109;BME280;46995;55.740;37.402;2024-01-30T08:01:14;100709.34;;;1.74;88.41
61109;BME280;46995;55.740;37.402;2024-01-30T08:03:39;100701.66;;;1.70;88.56
61109;BME280;46995;55.740;37.402;2024-01-30T08:06:07;100700.59;;;1.76;88.66
61109;BME280;46995;55.740;37.402;2024-01-30T08:08:32;100696.06;;;1.83;88.24
61109;BME280;46995;55.740;37.402;2024-01-30T08:10:58;100693.38;;;1.84;88.71
61109;BME280;46995;55.740;37.402;2024-01-30T08:13:24;100701.16;;;1.86;88.54
61109;BME280;46995;55.740;37.402;2024-01-30T08:15:50;100692.44;;;1.87;89.25
61109;BME280;46995;55.740;37.402;2024-01-30T08:18:15;100702.69;;;1.93;89.90
61109;BME280;46995;55.740;37.402;2024-01-30T08:20:41;100685.34;;;1.92;88.73
61109;BME280;46995;55.740;37.402;2024-01-30T08:23:07;100693.94;;;1.94;88.59
61109;BME280;46995;55.740;37.402;2024-01-30T08:25:32;100691.16;;;2.00;88.86
61109;BME280;46995;55.740;37.402;2024-01-30T08:27:58;100685.03;;;2.01;89.02
61109;BME280;46995;55.740;37.402;2024-01-30T08:30:23;100692.69;;;2.05;89.08
61109;BME280;46995;55.740;37.402;2024-01-30T08:32:49;100691.66;;;2.11;88.59
61109;BME280;46995;55.740;37.402;2024-01-30T08:35:15;100690.75;;;2.12;88.79
61109;BME280;46995;55.740;37.402;2024-01-30T08:37:42;100694.41;;;2.06;88.88
61109;BME280;46995;55.740;37.402;2024-01-30T08:40:07;100688.66;;;1.97;89.19
61109;BME280;46995;55.740;37.402;2024-01-30T08:42:36;100685.34;;;1.92;88.71
61109;BME280;46995;55.740;37.402;2024-01-30T08:45:02;100693.84;;;1.97;89.59
61109;BME280;46995;55.740;37.402;2024-01-30T08:47:30;100690.25;;;2.01;89.09
61109;BME280;46995;55.740;37.402;2024-01-30T08:49:55;100695.22;;;2.08;88.76
61109;BME280;46995;55.740;37.402;2024-01-30T08:52:21;100685.59;;;2.10;88.65
61109;BME280;46995;55.740;37.402;2024-01-30T08:54:47;100679.50;;;2.10;88.73
61109;BME280;46995;55.740;37.402;2024-01-30T08:57:12;100688.34;;;2.06;88.49
61109;BME280;46995;55.740;37.402;2024-01-30T08:59:38;100689.19;;;2.06;88.32
61109;BME280;46995;55.740;37.402;2024-01-30T09:02:04;100685.59;;;2.10;88.63
61109;BME280;46995;55.740;37.402;2024-01-30T09:04:30;100686.56;;;2.08;88.46
61109;BME280;46995;55.740;37.402;2024-01-30T09:06:56;100687.28;;;2.11;89.81
61109;BME280;46995;55.740;37.402;2024-01-30T09:09:21;100695.81;;;2.17;88.37
61109;BME280;46995;55.740;37.402;2024-01-30T09:11:47;100695.06;;;2.13;89.29
61109;BME280;46995;55.740;37.402;2024-01-30T09:14:13;100696.16;;;2.06;88.75
61109;BME280;46995;55.740;37.402;2024-01-30T09:16:39;100687.44;;;2.07;88.73
61109;BME280;46995;55.740;37.402;2024-01-30T09:19:24;100688.47;;;2.03;88.49
61109;BME280;46995;55.740;37.402;2024-01-30T09:21:49;100690.94;;;2.06;89.25
61109;BME280;46995;55.740;37.402;2024-01-30T09:24:15;100695.75;;;2.18;88.98
61109;BME280;46995;55.740;37.402;2024-01-30T09:26:40;100690.34;;;2.24;87.85
61109;BME280;46995;55.740;37.402;2024-01-30T09:29:06;100700.00;;;2.21;87.77
61109;BME280;46995;55.740;37.402;2024-01-30T09:31:32;100688.81;;;2.19;88.80
61109;BME280;46995;55.740;37.402;2024-01-30T09:33:57;100695.84;;;2.15;88.81
61109;BME280;46995;55.740;37.402;2024-01-30T09:36:23;100683.38;;;2.25;88.23
61109;BME280;46995;55.740;37.402;2024-01-30T09:38:49;100684.78;;;2.35;89.03
61109;BME280;46995;55.740;37.402;2024-01-30T09:41:14;100677.66;;;2.40;87.94
61109;BME280;46995;55.740;37.402;2024-01-30T09:43:40;100680.19;;;2.41;89.12
61109;BME280;46995;55.740;37.402;2024-01-30T09:46:08;100686.25;;;2.42;88.48
61109;BME280;46995;55.740;37.402;2024-01-30T09:48:37;100669.63;;;2.46;88.39
61109;BME280;46995;55.740;37.402;2024-01-30T09:51:03;100675.66;;;2.46;89.32
61109;BME280;46995;55.740;37.402;2024-01-30T09:53:28;100672.28;;;2.44;88.32
61109;BME280;46995;55.740;37.402;2024-01-30T09:55:54;100670.44;;;2.46;88.24
61109;BME280;46995;55.740;37.402;2024-01-30T09:58:20;100674.72;;;2.49;87.84
61109;BME280;46995;55.740;37.402;2024-01-30T10:00:45;100681.84;;;2.44;87.99
61109;BME280;46995;55.740;37.402;2024-01-30T10:03:11;100684.53;;;2.41;87.98
61109;BME280;46995;55.740;37.402;2024-01-30T10:05:37;100682.00;;;2.39;87.99
61109;BME280;46995;55.740;37.402;2024-01-30T10:08:05;100680.19;;;2.41;87.61
61109;BME280;46995;55.740;37.402;2024-01-30T10:10:31;100679.13;;;2.47;87.63
61109;BME280;46995;55.740;37.402;2024-01-30T10:12:58;100671.13;;;2.51;87.41
61109;BME280;46995;55.740;37.402;2024-01-30T10:15:23;100672.75;;;2.55;87.43
61109;BME280;46995;55.740;37.402;2024-01-30T10:17:49;100669.34;;;2.53;87.92
61109;BME280;46995;55.740;37.402;2024-01-30T10:20:15;100671.38;;;2.45;88.04
61109;BME280;46995;55.740;37.402;2024-01-30T10:22:59;100671.63;;;2.38;87.87
61109;BME280;46995;55.740;37.402;2024-01-30T10:25:25;100660.19;;;2.42;87.79
61109;BME280;46995;55.740;37.402;2024-01-30T10:27:56;100664.09;;;2.55;87.27
61109;BME280;46995;55.740;37.402;2024-01-30T10:30:22;100663.91;;;2.60;88.18
61109;BME280;46995;55.740;37.402;2024-01-30T10:32:48;100661.09;;;2.66;87.46
61109;BME280;46995;55.740;37.402;2024-01-30T10:35:15;100662.84;;;2.65;87.72
61109;BME280;46995;55.740;37.402;2024-01-30T10:37:44;100674.13;;;2.66;88.45
61109;BME280;46995;55.740;37.402;2024-01-30T10:40:12;100676.16;;;2.58;87.46
61109;BME280;46995;55.740;37.402;2024-01-30T10:42:38;100673.19;;;2.43;87.73
61109;BME280;46995;55.740;37.402;2024-01-30T10:45:08;100663.16;;;2.31;87.58
61109;BME280;46995;55.740;37.402;2024-01-30T10:47:34;100672.00;;;2.27;88.93
61109;BME280;46995;55.740;37.402;2024-01-30T10:50:00;100686.69;;;2.30;88.04
61109;BME280;46995;55.740;37.402;2024-01-30T10:52:28;100673.50;;;2.34;89.12
61109;BME280;46995;55.740;37.402;2024-01-30T10:54:55;100673.50;;;2.34;89.13
61109;BME280;46995;55.740;37.402;2024-01-30T10:57:22;100672.47;;;2.38;88.27
61109;BME280;46995;55.740;37.402;2024-01-30T10:59:48;100667.75;;;2.49;87.61
61109;BME280;46995;55.740;37.402;2024-01-30T11:02:14;100669.22;;;2.56;88.07
61109;BME280;46995;55.740;37.402;2024-01-30T11:04:41;100663.63;;;2.67;87.82
61109;BME280;46995;55.740;37.402;2024-01-30T11:07:23;100666.66;;;2.80;87.30
61109;BME280;46995;55.740;37.402;2024-01-30T11:09:49;100666.44;;;2.86;86.54
61109;BME280;46995;55.740;37.402;2024-01-30T11:12:16;100662.72;;;2.93;87.15
61109;BME280;46995;55.740;37.402;2024-01-30T11:14:42;100662.00;;;2.88;87.58
61109;BME280;46995;55.740;37.402;2024-01-30T11:17:09;100671.84;;;2.81;86.71
61109;BME280;46995;55.740;37.402;2024-01-30T11:19:35;100667.84;;;2.71;87.58
61109;BME280;46995;55.740;37.402;2024-01-30T11:22:01;100670.50;;;2.70;87.05
61109;BME280;46995;55.740;37.402;2024-01-30T11:24:27;100668.72;;;2.72;87.27
61109;BME280;46995;55.740;37.402;2024-01-30T11:26:56;100668.91;;;2.66;89.00
61109;BME280;46995;55.740;37.402;2024-01-30T11:29:29;100663.78;;;2.63;88.37
61109;BME280;46995;55.740;37.402;2024-01-30T11:31:55;100674.44;;;2.56;87.85
61109;BME280;46995;55.740;37.402;2024-01-30T11:34:21;100671.06;;;2.54;88.06
61109;BME280;46995;55.740;37.402;2024-01-30T11:36:56;100680.66;;;2.52;88.47
61109;BME280;46995;55.740;37.402;2024-01-30T11:39:26;100686.09;;;2.46;87.67
61109;BME280;46995;55.740;37.402;2024-01-30T11:41:52;100688.69;;;2.46;87.64
61109;BME280;46995;55.740;37.402;2024-01-30T11:44:21;100692.13;;;2.48;87.25
61109;BME280;46995;55.740;37.402;2024-01-30T11:46:48;100692.00;;;2.51;87.49
61109;BME280;46995;55.740;37.402;2024-01-30T11:49:14;100693.91;;;2.46;87.49
61109;BME280;46995;55.740;37.402;2024-01-30T11:51:39;100707.06;;;2.43;87.47
61109;BME280;46995;55.740;37.402;2024-01-30T11:54:05;100707.88;;;2.45;87.29
61109;BME280;46995;55.740;37.402;2024-01-30T11:56:31;100709.63;;;2.45;88.39
61109;BME280;46995;55.740;37.402;2024-01-30T11:58:56;100713.38;;;2.36;88.65
61109;BME280;46995;55.740;37.402;2024-01-30T12:01:22;100721.50;;;2.27;89.11
61109;BME280;46995;55.740;37.402;2024-01-30T12:03:50;100708.69;;;2.21;89.12
61109;BME280;46995;55.740;37.402;2024-01-30T12:06:16;100713.00;;;2.22;88.31
61109;BME280;46995;55.740;37.402;2024-01-30T12:08:42;100715.41;;;2.28;88.13
61109;BME280;46995;55.740;37.402;2024-01-30T12:11:08;100715.19;;;2.34;88.62
61109;BME280;46995;55.740;37.402;2024-01-30T12:13:33;100712.47;;;2.37;88.77
61109;BME280;46995;55.740;37.402;2024-01-30T12:15:59;100718.38;;;2.42;87.38
61109;BME280;46995;55.740;37.402;2024-01-30T12:18:26;100718.44;;;2.41;86.95
61109;BME280;46995;55.740;37.402;2024-01-30T12:21:01;100713.19;;;2.42;87.63
61109;BME280;46995;55.740;37.402;2024-01-30T12:23:27;100731.38;;;2.44;88.58
61109;BME280;46995;55.740;37.402;2024-01-30T12:25:52;100719.28;;;2.41;87.92
61109;BME280;46995;55.740;37.402;2024-01-30T12:28:19;100720.56;;;2.30;88.06
61109;BME280;46995;55.740;37.402;2024-01-30T12:30:44;100720.69;;;2.25;88.72
61109;BME280;46995;55.740;37.402;2024-01-30T12:33:15;100721.56;;;2.26;87.97
61109;BME280;46995;55.740;37.402;2024-01-30T12:35:41;100711.91;;;2.29;89.24
61109;BME280;46995;55.740;37.402;2024-01-30T12:38:12;100710.19;;;2.28;88.45
61109;BME280;46995;55.740;37.402;2024-01-30T12:40:38;100720.63;;;2.28;88.47
61109;BME280;46995;55.740;37.402;2024-01-30T12:43:04;100709.88;;;2.37;87.61